sensor_id;sensor_type;location;lat;lon;timestamp;P1;durP1;ratioP1;P2;durP2;ratioP2
6651;SDS011;3362;50.892;10.692;2023-11-18T00:00:33;0.30;;;0.20;;
6651;SDS011;3362;50.892;10.692;2023-11-18T00:03:00;0.98;;;0.95;;
6651;SDS011;3362;50.892;10.692;2023-11-18T00:05:26;1.38;;;0.35;;
6651;SDS011;3362;50.892;10.692;2023-11-18T00:07:52;1.02;;;0.80;;
6651;SDS011;3362;50.892;10.692;2023-11-18T00:10:19;0.75;;;0.63;;
6651;SDS011;3362;50.892;10.692;2023-11-18T00:12:46;0.30;;;0.20;;
6651;SDS011;3362;50.892;10.692;2023-11-18T00:15:13;0.50;;;0.50;;
6651;SDS011;3362;50.892;10.692;2023-11-18T00:17:39;0.82;;;0.45;;
6651;SDS011;3362;50.892;10.692;2023-11-18T00:20:06;0.47;;;0.47;;
6651;SDS011;3362;50.892;10.692;2023-11-18T00:22:34;0.35;;;0.35;;
6651;SDS011;3362;50.892;10.692;2023-11-18T00:25:00;0.30;;;0.20;;
6651;SDS011;3362;50.892;10.692;2023-11-18T00:27:30;0.40;;;0.22;;
6651;SDS011;3362;50.892;10.692;2023-11-18T00:29:57;0.60;;;0.40;;
6651;SDS011;3362;50.892;10.692;2023-11-18T00:32:23;2.20;;;0.40;;
6651;SDS011;3362;50.892;10.692;2023-11-18T00:34:50;1.30;;;1.17;;
6651;SDS011;3362;50.892;10.692;2023-11-18T00:37:16;0.30;;;0.20;;
6651;SDS011;3362;50.892;10.692;2023-11-18T00:39:42;0.47;;;0.47;;
6651;SDS011;3362;50.892;10.692;2023-11-18T00:42:08;0.30;;;0.20;;
6651;SDS011;3362;50.892;10.692;2023-11-18T00:44:35;0.60;;;0.60;;
6651;SDS011;3362;50.892;10.692;2023-11-18T00:47:03;0.68;;;0.68;;
6651;SDS011;3362;50.892;10.692;2023-11-18T00:49:29;0.30;;;0.17;;
6651;SDS011;3362;50.892;10.692;2023-11-18T00:51:56;0.30;;;0.30;;
6651;SDS011;3362;50.892;10.692;2023-11-18T00:54:22;0.80;;;0.80;;
6651;SDS011;3362;50.892;10.692;2023-11-18T00:56:49;1.00;;;0.73;;
6651;SDS011;3362;50.892;10.692;2023-11-18T00:59:15;0.30;;;0.30;;
6651;SDS011;3362;50.892;10.692;2023-11-18T01:01:41;0.47;;;0.43;;
6651;SDS011;3362;50.892;10.692;2023-11-18T01:04:09;0.30;;;0.30;;
6651;SDS011;3362;50.892;10.692;2023-11-18T01:06:35;0.85;;;0.73;;
6651;SDS011;3362;50.892;10.692;2023-11-18T01:09:02;5.47;;;0.82;;
6651;SDS011;3362;50.892;10.692;2023-11-18T01:11:28;0.30;;;0.30;;
6651;SDS011;3362;50.892;10.692;2023-11-18T01:13:55;0.77;;;0.60;;
6651;SDS011;3362;50.892;10.692;2023-11-18T01:16:21;0.30;;;0.13;;
6651;SDS011;3362;50.892;10.692;2023-11-18T01:18:49;0.32;;;0.22;;
6651;SDS011;3362;50.892;10.692;2023-11-18T01:21:16;0.73;;;0.57;;
6651;SDS011;3362;50.892;10.692;2023-11-18T01:23:43;0.70;;;0.50;;
6651;SDS011;3362;50.892;10.692;2023-11-18T01:26:10;1.02;;;0.40;;
6651;SDS011;3362;50.892;10.692;2023-11-18T01:28:37;0.73;;;0.47;;
6651;SDS011;3362;50.892;10.692;2023-11-18T01:31:06;0.30;;;0.10;;
6651;SDS011;3362;50.892;10.692;2023-11-18T01:33:34;1.10;;;0.40;;
6651;SDS011;3362;50.892;10.692;2023-11-18T01:36:02;0.40;;;0.40;;
6651;SDS011;3362;50.892;10.692;2023-11-18T01:38:30;0.50;;;0.47;;
6651;SDS011;3362;50.892;10.692;2023-11-18T01:40:56;0.57;;;0.30;;
6651;SDS011;3362;50.892;10.692;2023-11-18T01:43:22;0.50;;;0.40;;
6651;SDS011;3362;50.892;10.692;2023-11-18T01:45:49;0.40;;;0.40;;
6651;SDS011;3362;50.892;10.692;2023-11-18T01:48:15;0.40;;;0.40;;
6651;SDS011;3362;50.892;10.692;2023-11-18T01:50:42;0.30;;;0.20;;
6651;SDS011;3362;50.892;10.692;2023-11-18T01:53:10;0.75;;;0.68;;
6651;SDS011;3362;50.892;10.692;2023-11-18T01:55:40;0.32;;;0.28;;
6651;SDS011;3362;50.892;10.692;2023-11-18T01:58:07;0.30;;;0.30;;
6651;SDS011;3362;50.892;10.692;2023-11-18T02:00:36;0.95;;;0.40;;
6651;SDS011;3362;50.892;10.692;2023-11-18T02:03:03;0.43;;;0.35;;
6651;SDS011;3362;50.892;10.692;2023-11-18T02:05:30;0.30;;;0.20;;
6651;SDS011;3362;50.892;10.692;2023-11-18T02:07:57;0.30;;;0.10;;
6651;SDS011;3362;50.892;10.692;2023-11-18T02:10:25;0.80;;;0.40;;
6651;SDS011;3362;50.892;10.692;2023-11-18T02:12:54;0.40;;;0.32;;
6651;SDS011;3362;50.892;10.692;2023-11-18T02:15:21;0.45;;;0.45;;
6651;SDS011;3362;50.892;10.692;2023-11-18T02:17:49;0.40;;;0.40;;
6651;SDS011;3362;50.892;10.692;2023-11-18T02:20:16;0.50;;;0.50;;
6651;SDS011;3362;50.892;10.692;2023-11-18T02:22:45;0.43;;;0.32;;
6651;SDS011;3362;50.892;10.692;2023-11-18T02:25:13;1.55;;;0.73;;
6651;SDS011;3362;50.892;10.692;2023-11-18T02:27:42;0.57;;;0.38;;
6651;SDS011;3362;50.892;10.692;2023-11-18T02:30:09;0.52;;;0.52;;
6651;SDS011;3362;50.892;10.692;2023-11-18T02:32:39;0.30;;;0.17;;
6651;SDS011;3362;50.892;10.692;2023-11-18T02:35:12;0.60;;;0.60;;
6651;SDS011;3362;50.892;10.692;2023-11-18T02:37:41;0.95;;;0.30;;
6651;SDS011;3362;50.892;10.692;2023-11-18T02:40:09;1.48;;;1.38;;
6651;SDS011;3362;50.892;10.692;2023-11-18T02:42:39;0.82;;;0.82;;
6651;SDS011;3362;50.892;10.692;2023-11-18T02:45:09;0.70;;;0.70;;
6651;SDS011;3362;50.892;10.692;2023-11-18T02:47:37;1.88;;;1.08;;
6651;SDS011;3362;50.892;10.692;2023-11-18T02:50:04;1.15;;;0.90;;
6651;SDS011;3362;50.892;10.692;2023-11-18T02:52:35;0.50;;;0.47;;
6651;SDS011;3362;50.892;10.692;2023-11-18T02:57:28;0.30;;;0.20;;
6651;SDS011;3362;50.892;10.692;2023-11-18T02:59:55;0.40;;;0.40;;
6651;SDS011;3362;50.892;10.692;2023-11-18T03:02:22;0.82;;;0.82;;
6651;SDS011;3362;50.892;10.692;2023-11-18T03:04:49;0.45;;;0.45;;
6651;SDS011;3362;50.892;10.692;2023-11-18T03:07:15;0.38;;;0.38;;
6651;SDS011;3362;50.892;10.692;2023-11-18T03:09:41;0.30;;;0.20;;
6651;SDS011;3362;50.892;10.692;2023-11-18T03:12:08;0.55;;;0.50;;
6651;SDS011;3362;50.892;10.692;2023-11-18T03:14:35;0.30;;;0.10;;
6651;SDS011;3362;50.892;10.692;2023-11-18T03:17:02;0.60;;;0.40;;
6651;SDS011;3362;50.892;10.692;2023-11-18T03:19:32;0.60;;;0.60;;
6651;SDS011;3362;50.892;10.692;2023-11-18T03:21:59;1.33;;;0.77;;
6651;SDS011;3362;50.892;10.692;2023-11-18T03:24:26;0.77;;;0.60;;
6651;SDS011;3362;50.892;10.692;2023-11-18T03:26:53;0.30;;;0.30;;
6651;SDS011;3362;50.892;10.692;2023-11-18T03:29:20;0.52;;;0.52;;
6651;SDS011;3362;50.892;10.692;2023-11-18T03:31:46;0.45;;;0.45;;
6651;SDS011;3362;50.892;10.692;2023-11-18T03:34:13;0.40;;;0.40;;
6651;SDS011;3362;50.892;10.692;2023-11-18T03:36:41;0.70;;;0.70;;
6651;SDS011;3362;50.892;10.692;2023-11-18T03:39:07;0.73;;;0.73;;
6651;SDS011;3362;50.892;10.692;2023-11-18T03:41:37;2.25;;;0.40;;
6651;SDS011;3362;50.892;10.692;2023-11-18T03:44:03;1.15;;;0.50;;
6651;SDS011;3362;50.892;10.692;2023-11-18T03:46:30;0.40;;;0.35;;
6651;SDS011;3362;50.892;10.692;2023-11-18T03:48:59;0.93;;;0.52;;
6651;SDS011;3362;50.892;10.692;2023-11-18T03:51:25;0.50;;;0.50;;
6651;SDS011;3362;50.892;10.692;2023-11-18T03:53:53;2.42;;;1.02;;
6651;SDS011;3362;50.892;10.692;2023-11-18T03:56:19;0.80;;;0.80;;
6651;SDS011;3362;50.892;10.692;2023-11-18T03:58:45;0.45;;;0.45;;
6651;SDS011;3362;50.892;10.692;2023-11-18T04:06:07;0.30;;;0.30;;
6651;SDS011;3362;50.892;10.692;2023-11-18T04:08:34;0.63;;;0.63;;
6651;SDS011;3362;50.892;10.692;2023-11-18T04:11:01;9.02;;;1.60;;
6651;SDS011;3362;50.892;10.692;2023-11-18T04:13:29;0.45;;;0.45;;
6651;SDS011;3362;50.892;10.692;2023-11-18T04:15:55;1.30;;;1.15;;
6651;SDS011;3362;50.892;10.692;2023-11-18T04:18:22;0.30;;;0.30;;
6651;SDS011;3362;50.892;10.692;2023-11-18T04:20:49;1.20;;;0.45;;
6651;SDS011;3362;50.892;10.692;2023-11-18T04:23:15;1.50;;;1.00;;
6651;SDS011;3362;50.892;10.692;2023-11-18T04:25:41;0.52;;;0.52;;
6651;SDS011;3362;50.892;10.692;2023-11-18T04:28:09;1.60;;;1.33;;
6651;SDS011;3362;50.892;10.692;2023-11-18T04:30:36;0.30;;;0.25;;
6651;SDS011;3362;50.892;10.692;2023-11-18T04:33:03;0.88;;;0.88;;
6651;SDS011;3362;50.892;10.692;2023-11-18T04:35:29;1.83;;;1.73;;
6651;SDS011;3362;50.892;10.692;2023-11-18T04:37:57;0.30;;;0.28;;
6651;SDS011;3362;50.892;10.692;2023-11-18T04:40:23;0.93;;;0.93;;
6651;SDS011;3362;50.892;10.692;2023-11-18T04:42:49;1.65;;;1.27;;
6651;SDS011;3362;50.892;10.692;2023-11-18T04:45:17;1.48;;;1.38;;
6651;SDS011;3362;50.892;10.692;2023-11-18T04:47:43;0.60;;;0.60;;
6651;SDS011;3362;50.892;10.692;2023-11-18T04:50:10;0.70;;;0.70;;
6651;SDS011;3362;50.892;10.692;2023-11-18T04:55:03;1.95;;;0.88;;
6651;SDS011;3362;50.892;10.692;2023-11-18T04:57:30;0.30;;;0.30;;
6651;SDS011;3362;50.892;10.692;2023-11-18T04:59:56;0.70;;;0.65;;
6651;SDS011;3362;50.892;10.692;2023-11-18T05:02:24;1.95;;;0.82;;
6651;SDS011;3362;50.892;10.692;2023-11-18T05:04:50;1.60;;;0.93;;
6651;SDS011;3362;50.892;10.692;2023-11-18T05:07:16;1.05;;;0.60;;
6651;SDS011;3362;50.892;10.692;2023-11-18T05:09:43;1.05;;;0.73;;
6651;SDS011;3362;50.892;10.692;2023-11-18T05:12:09;0.55;;;0.55;;
6651;SDS011;3362;50.892;10.692;2023-11-18T05:14:36;0.90;;;0.85;;
6651;SDS011;3362;50.892;10.692;2023-11-18T05:17:03;0.40;;;0.40;;
6651;SDS011;3362;50.892;10.692;2023-11-18T05:19:31;0.65;;;0.65;;
6651;SDS011;3362;50.892;10.692;2023-11-18T05:21:57;0.30;;;0.28;;
6651;SDS011;3362;50.892;10.692;2023-11-18T05:24:25;0.65;;;0.65;;
6651;SDS011;3362;50.892;10.692;2023-11-18T05:26:51;2.65;;;0.73;;
6651;SDS011;3362;50.892;10.692;2023-11-18T05:29:17;0.70;;;0.43;;
6651;SDS011;3362;50.892;10.692;2023-11-18T05:31:45;0.45;;;0.45;;
6651;SDS011;3362;50.892;10.692;2023-11-18T05:34:12;0.68;;;0.68;;
6651;SDS011;3362;50.892;10.692;2023-11-18T05:36:39;0.70;;;0.55;;
6651;SDS011;3362;50.892;10.692;2023-11-18T05:39:06;0.60;;;0.60;;
6651;SDS011;3362;50.892;10.692;2023-11-18T05:41:34;0.95;;;0.90;;
6651;SDS011;3362;50.892;10.692;2023-11-18T05:44:01;0.45;;;0.30;;
6651;SDS011;3362;50.892;10.692;2023-11-18T05:46:27;0.75;;;0.75;;
6651;SDS011;3362;50.892;10.692;2023-11-18T05:48:54;0.77;;;0.63;;
6651;SDS011;3362;50.892;10.692;2023-11-18T05:51:21;1.25;;;0.50;;
6651;SDS011;3362;50.892;10.692;2023-11-18T05:53:49;1.77;;;1.67;;
6651;SDS011;3362;50.892;10.692;2023-11-18T05:56:17;0.30;;;0.20;;
6651;SDS011;3362;50.892;10.692;2023-11-18T05:58:43;0.52;;;0.52;;
6651;SDS011;3362;50.892;10.692;2023-11-18T06:01:09;0.77;;;0.77;;
6651;SDS011;3362;50.892;10.692;2023-11-18T06:03:36;0.30;;;0.20;;
6651;SDS011;3362;50.892;10.692;2023-11-18T06:06:04;0.57;;;0.57;;
6651;SDS011;3362;50.892;10.692;2023-11-18T06:08:31;0.43;;;0.40;;
6651;SDS011;3362;50.892;10.692;2023-11-18T06:10:59;0.50;;;0.40;;
6651;SDS011;3362;50.892;10.692;2023-11-18T06:13:30;0.30;;;0.20;;
6651;SDS011;3362;50.892;10.692;2023-11-18T06:15:57;0.52;;;0.38;;
6651;SDS011;3362;50.892;10.692;2023-11-18T06:18:24;0.50;;;0.50;;
6651;SDS011;3362;50.892;10.692;2023-11-18T06:20:50;0.82;;;0.60;;
6651;SDS011;3362;50.892;10.692;2023-11-18T06:23:16;0.63;;;0.63;;
6651;SDS011;3362;50.892;10.692;2023-11-18T06:25:44;0.30;;;0.20;;
6651;SDS011;3362;50.892;10.692;2023-11-18T06:28:13;1.42;;;1.20;;
6651;SDS011;3362;50.892;10.692;2023-11-18T06:30:40;0.30;;;0.20;;
6651;SDS011;3362;50.892;10.692;2023-11-18T06:33:06;0.30;;;0.30;;
6651;SDS011;3362;50.892;10.692;2023-11-18T06:35:33;0.65;;;0.45;;
6651;SDS011;3362;50.892;10.692;2023-11-18T06:38:00;1.20;;;0.90;;
6651;SDS011;3362;50.892;10.692;2023-11-18T06:40:27;0.43;;;0.43;;
6651;SDS011;3362;50.892;10.692;2023-11-18T06:42:55;0.77;;;0.60;;
6651;SDS011;3362;50.892;10.692;2023-11-18T06:45:28;0.60;;;0.40;;
6651;SDS011;3362;50.892;10.692;2023-11-18T06:47:56;0.45;;;0.28;;
6651;SDS011;3362;50.892;10.692;2023-11-18T06:50:23;0.90;;;0.85;;
6651;SDS011;3362;50.892;10.692;2023-11-18T06:52:51;0.63;;;0.63;;
6651;SDS011;3362;50.892;10.692;2023-11-18T06:55:18;0.30;;;0.30;;
6651;SDS011;3362;50.892;10.692;2023-11-18T06:57:44;2.67;;;1.88;;
6651;SDS011;3362;50.892;10.692;2023-11-18T07:00:11;1.17;;;0.70;;
6651;SDS011;3362;50.892;10.692;2023-11-18T07:02:41;0.60;;;0.60;;
6651;SDS011;3362;50.892;10.692;2023-11-18T07:05:08;1.23;;;1.17;;
6651;SDS011;3362;50.892;10.692;2023-11-18T07:07:34;0.77;;;0.77;;
6651;SDS011;3362;50.892;10.692;2023-11-18T07:10:02;1.20;;;1.15;;
6651;SDS011;3362;50.892;10.692;2023-11-18T07:12:31;1.30;;;1.20;;
6651;SDS011;3362;50.892;10.692;2023-11-18T07:14:58;1.85;;;1.48;;
6651;SDS011;3362;50.892;10.692;2023-11-18T07:17:25;0.85;;;0.80;;
6651;SDS011;3362;50.892;10.692;2023-11-18T07:19:53;0.47;;;0.40;;
6651;SDS011;3362;50.892;10.692;2023-11-18T07:22:19;0.70;;;0.70;;
6651;SDS011;3362;50.892;10.692;2023-11-18T07:24:46;1.80;;;1.58;;
6651;SDS011;3362;50.892;10.692;2023-11-18T07:27:12;1.13;;;1.02;;
6651;SDS011;3362;50.892;10.692;2023-11-18T07:29:38;0.43;;;0.43;;
6651;SDS011;3362;50.892;10.692;2023-11-18T07:32:05;0.45;;;0.45;;
6651;SDS011;3362;50.892;10.692;2023-11-18T07:34:31;1.05;;;0.80;;
6651;SDS011;3362;50.892;10.692;2023-11-18T07:37:00;0.65;;;0.65;;
6651;SDS011;3362;50.892;10.692;2023-11-18T07:39:27;0.73;;;0.70;;
6651;SDS011;3362;50.892;10.692;2023-11-18T07:42:08;1.35;;;0.68;;
6651;SDS011;3362;50.892;10.692;2023-11-18T07:44:35;1.88;;;1.38;;
6651;SDS011;3362;50.892;10.692;2023-11-18T07:47:01;1.00;;;0.93;;
6651;SDS011;3362;50.892;10.692;2023-11-18T07:49:29;0.95;;;0.52;;
6651;SDS011;3362;50.892;10.692;2023-11-18T07:51:56;0.90;;;0.60;;
6651;SDS011;3362;50.892;10.692;2023-11-18T07:54:24;1.50;;;1.40;;
6651;SDS011;3362;50.892;10.692;2023-11-18T07:56:50;1.08;;;1.08;;
6651;SDS011;3362;50.892;10.692;2023-11-18T07:59:18;0.40;;;0.32;;
6651;SDS011;3362;50.892;10.692;2023-11-18T08:01:44;0.85;;;0.85;;
6651;SDS011;3362;50.892;10.692;2023-11-18T08:04:11;0.65;;;0.60;;
6651;SDS011;3362;50.892;10.692;2023-11-18T08:06:38;1.13;;;1.13;;
6651;SDS011;3362;50.892;10.692;2023-11-18T08:09:05;0.60;;;0.60;;
6651;SDS011;3362;50.892;10.692;2023-11-18T08:11:36;0.88;;;0.68;;
6651;SDS011;3362;50.892;10.692;2023-11-18T08:14:04;2.10;;;1.00;;
6651;SDS011;3362;50.892;10.692;2023-11-18T08:16:32;0.80;;;0.80;;
6651;SDS011;3362;50.892;10.692;2023-11-18T08:18:59;1.48;;;1.38;;
6651;SDS011;3362;50.892;10.692;2023-11-18T08:21:27;0.73;;;0.73;;
6651;SDS011;3362;50.892;10.692;2023-11-18T08:23:53;2.92;;;1.38;;
6651;SDS011;3362;50.892;10.692;2023-11-18T08:26:20;0.50;;;0.50;;
6651;SDS011;3362;50.892;10.692;2023-11-18T08:28:48;4.95;;;1.33;;
6651;SDS011;3362;50.892;10.692;2023-11-18T08:31:14;1.60;;;1.23;;
6651;SDS011;3362;50.892;10.692;2023-11-18T08:33:42;1.35;;;0.70;;
6651;SDS011;3362;50.892;10.692;2023-11-18T08:36:10;0.95;;;0.95;;
6651;SDS011;3362;50.892;10.692;2023-11-18T08:38:37;1.30;;;0.70;;
6651;SDS011;3362;50.892;10.692;2023-11-18T08:41:05;3.20;;;1.40;;
6651;SDS011;3362;50.892;10.692;2023-11-18T08:43:34;2.83;;;1.05;;
6651;SDS011;3362;50.892;10.692;2023-11-18T08:46:01;1.77;;;1.63;;
6651;SDS011;3362;50.892;10.692;2023-11-18T08:48:27;1.63;;;1.52;;
6651;SDS011;3362;50.892;10.692;2023-11-18T08:50:54;1.40;;;0.82;;
6651;SDS011;3362;50.892;10.692;2023-11-18T08:53:20;3.38;;;1.73;;
6651;SDS011;3362;50.892;10.692;2023-11-18T08:55:51;1.50;;;1.38;;
6651;SDS011;3362;50.892;10.692;2023-11-18T08:58:19;6.55;;;2.33;;
6651;SDS011;3362;50.892;10.692;2023-11-18T09:00:47;2.03;;;0.90;;
6651;SDS011;3362;50.892;10.692;2023-11-18T09:03:17;2.42;;;2.17;;
6651;SDS011;3362;50.892;10.692;2023-11-18T09:05:43;1.88;;;1.20;;
6651;SDS011;3362;50.892;10.692;2023-11-18T09:08:21;4.38;;;2.15;;
6651;SDS011;3362;50.892;10.692;2023-11-18T09:10:47;0.82;;;0.82;;
6651;SDS011;3362;50.892;10.692;2023-11-18T09:13:14;1.90;;;1.70;;
6651;SDS011;3362;50.892;10.692;2023-11-18T09:15:40;1.80;;;1.70;;
6651;SDS011;3362;50.892;10.692;2023-11-18T09:18:07;4.32;;;3.08;;
6651;SDS011;3362;50.892;10.692;2023-11-18T09:20:36;1.23;;;1.20;;
6651;SDS011;3362;50.892;10.692;2023-11-18T09:23:04;1.90;;;1.70;;
6651;SDS011;3362;50.892;10.692;2023-11-18T09:25:32;3.33;;;1.27;;
6651;SDS011;3362;50.892;10.692;2023-11-18T09:27:58;2.10;;;1.38;;
6651;SDS011;3362;50.892;10.692;2023-11-18T09:30:25;1.10;;;1.02;;
6651;SDS011;3362;50.892;10.692;2023-11-18T09:32:51;1.38;;;1.20;;
6651;SDS011;3362;50.892;10.692;2023-11-18T09:35:19;0.88;;;0.77;;
6651;SDS011;3362;50.892;10.692;2023-11-18T09:37:47;1.25;;;1.02;;
6651;SDS011;3362;50.892;10.692;2023-11-18T09:40:14;1.65;;;0.93;;
6651;SDS011;3362;50.892;10.692;2023-11-18T09:42:40;1.63;;;1.15;;
6651;SDS011;3362;50.892;10.692;2023-11-18T09:45:09;1.05;;;0.93;;
6651;SDS011;3362;50.892;10.692;2023-11-18T09:47:39;0.77;;;0.75;;
6651;SDS011;3362;50.892;10.692;2023-11-18T09:50:08;4.43;;;1.17;;
6651;SDS011;3362;50.892;10.692;2023-11-18T09:52:36;0.93;;;0.93;;
6651;SDS011;3362;50.892;10.692;2023-11-18T09:55:09;0.43;;;0.40;;
6651;SDS011;3362;50.892;10.692;2023-11-18T09:57:40;1.08;;;1.05;;
6651;SDS011;3362;50.892;10.692;2023-11-18T10:00:11;0.80;;;0.73;;
6651;SDS011;3362;50.892;10.692;2023-11-18T10:02:45;1.38;;;0.80;;
6651;SDS011;3362;50.892;10.692;2023-11-18T10:07:38;3.72;;;1.23;;
6651;SDS011;3362;50.892;10.692;2023-11-18T10:10:05;3.72;;;1.73;;
6651;SDS011;3362;50.892;10.692;2023-11-18T10:12:40;1.50;;;1.40;;
6651;SDS011;3362;50.892;10.692;2023-11-18T10:15:08;1.65;;;1.35;;
6651;SDS011;3362;50.892;10.692;2023-11-18T10:17:37;4.88;;;2.13;;
6651;SDS011;3362;50.892;10.692;2023-11-18T10:20:10;1.77;;;1.60;;
6651;SDS011;3362;50.892;10.692;2023-11-18T10:22:38;2.80;;;1.73;;
6651;SDS011;3362;50.892;10.692;2023-11-18T10:25:05;1.30;;;1.20;;
6651;SDS011;3362;50.892;10.692;2023-11-18T10:27:32;2.78;;;0.95;;
6651;SDS011;3362;50.892;10.692;2023-11-18T10:30:03;1.13;;;1.02;;
6651;SDS011;3362;50.892;10.692;2023-11-18T10:32:29;1.05;;;0.30;;
6651;SDS011;3362;50.892;10.692;2023-11-18T10:35:00;1.10;;;1.02;;
6651;SDS011;3362;50.892;10.692;2023-11-18T10:37:27;0.30;;;0.10;;
6651;SDS011;3362;50.892;10.692;2023-11-18T10:39:55;0.40;;;0.40;;
6651;SDS011;3362;50.892;10.692;2023-11-18T10:42:25;0.30;;;0.15;;
6651;SDS011;3362;50.892;10.692;2023-11-18T10:44:54;0.85;;;0.75;;
6651;SDS011;3362;50.892;10.692;2023-11-18T10:47:24;0.93;;;0.43;;
6651;SDS011;3362;50.892;10.692;2023-11-18T10:49:52;0.70;;;0.70;;
6651;SDS011;3362;50.892;10.692;2023-11-18T10:54:49;0.35;;;0.35;;
6651;SDS011;3362;50.892;10.692;2023-11-18T10:57:19;1.23;;;1.05;;
6651;SDS011;3362;50.892;10.692;2023-11-18T10:59:57;2.25;;;0.68;;
6651;SDS011;3362;50.892;10.692;2023-11-18T11:02:25;0.30;;;0.20;;
6651;SDS011;3362;50.892;10.692;2023-11-18T11:04:59;2.47;;;0.38;;
6651;SDS011;3362;50.892;10.692;2023-11-18T11:07:26;0.30;;;0.30;;
6651;SDS011;3362;50.892;10.692;2023-11-18T11:09:52;0.75;;;0.75;;
6651;SDS011;3362;50.892;10.692;2023-11-18T11:12:21;0.82;;;0.45;;
6651;SDS011;3362;50.892;10.692;2023-11-18T11:14:50;1.13;;;1.00;;
6651;SDS011;3362;50.892;10.692;2023-11-18T11:17:19;0.38;;;0.28;;
6651;SDS011;3362;50.892;10.692;2023-11-18T11:19:54;2.60;;;0.95;;
6651;SDS011;3362;50.892;10.692;2023-11-18T11:22:22;0.43;;;0.43;;
6651;SDS011;3362;50.892;10.692;2023-11-18T11:24:54;1.75;;;0.90;;
6651;SDS011;3362;50.892;10.692;2023-11-18T11:27:23;0.82;;;0.65;;
6651;SDS011;3362;50.892;10.692;2023-11-18T11:30:02;0.70;;;0.52;;
6651;SDS011;3362;50.892;10.692;2023-11-18T11:32:35;0.40;;;0.40;;
6651;SDS011;3362;50.892;10.692;2023-11-18T11:35:07;2.38;;;0.60;;
6651;SDS011;3362;50.892;10.692;2023-11-18T11:37:42;1.70;;;0.50;;
6651;SDS011;3362;50.892;10.692;2023-11-18T11:40:09;0.95;;;0.95;;
6651;SDS011;3362;50.892;10.692;2023-11-18T11:42:37;0.60;;;0.40;;
6651;SDS011;3362;50.892;10.692;2023-11-18T11:45:05;2.30;;;1.13;;
6651;SDS011;3362;50.892;10.692;2023-11-18T11:47:33;0.40;;;0.40;;
6651;SDS011;3362;50.892;10.692;2023-11-18T11:50:03;0.70;;;0.60;;
6651;SDS011;3362;50.892;10.692;2023-11-18T11:52:36;1.17;;;0.35;;
6651;SDS011;3362;50.892;10.692;2023-11-18T11:55:05;2.92;;;0.60;;
6651;SDS011;3362;50.892;10.692;2023-11-18T11:57:37;1.35;;;1.05;;
6651;SDS011;3362;50.892;10.692;2023-11-18T12:00:04;2.88;;;1.33;;
6651;SDS011;3362;50.892;10.692;2023-11-18T12:02:40;32.63;;;12.95;;
6651;SDS011;3362;50.892;10.692;2023-11-18T12:05:15;25.60;;;9.13;;
6651;SDS011;3362;50.892;10.692;2023-11-18T12:07:46;21.10;;;9.18;;
6651;SDS011;3362;50.892;10.692;2023-11-18T12:10:13;22.88;;;8.32;;
6651;SDS011;3362;50.892;10.692;2023-11-18T12:12:45;11.15;;;6.75;;
6651;SDS011;3362;50.892;10.692;2023-11-18T12:15:12;4.25;;;3.15;;
6651;SDS011;3362;50.892;10.692;2023-11-18T12:20:39;2.58;;;2.38;;
6651;SDS011;3362;50.892;10.692;2023-11-18T12:23:08;1.08;;;0.80;;
6651;SDS011;3362;50.892;10.692;2023-11-18T12:25:40;0.90;;;0.90;;
6651;SDS011;3362;50.892;10.692;2023-11-18T12:30:38;0.95;;;0.95;;
6651;SDS011;3362;50.892;10.692;2023-11-18T12:33:08;1.48;;;1.38;;
6651;SDS011;3362;50.892;10.692;2023-11-18T12:35:37;2.08;;;1.88;;
6651;SDS011;3362;50.892;10.692;2023-11-18T12:40:53;0.85;;;0.82;;
6651;SDS011;3362;50.892;10.692;2023-11-18T12:43:26;2.13;;;0.80;;
6651;SDS011;3362;50.892;10.692;2023-11-18T12:46:13;1.67;;;0.98;;
6651;SDS011;3362;50.892;10.692;2023-11-18T12:48:49;0.88;;;0.77;;
6651;SDS011;3362;50.892;10.692;2023-11-18T12:51:16;0.73;;;0.60;;
6651;SDS011;3362;50.892;10.692;2023-11-18T12:53:47;3.75;;;1.23;;
6651;SDS011;3362;50.892;10.692;2023-11-18T12:56:16;0.75;;;0.75;;
6651;SDS011;3362;50.892;10.692;2023-11-18T12:58:44;1.55;;;0.98;;
6651;SDS011;3362;50.892;10.692;2023-11-18T13:01:11;0.95;;;0.95;;
6651;SDS011;3362;50.892;10.692;2023-11-18T13:03:39;0.70;;;0.70;;
6651;SDS011;3362;50.892;10.692;2023-11-18T13:06:07;1.67;;;0.40;;
6651;SDS011;3362;50.892;10.692;2023-11-18T13:10:59;0.50;;;0.50;;
6651;SDS011;3362;50.892;10.692;2023-11-18T13:13:31;0.82;;;0.75;;
6651;SDS011;3362;50.892;10.692;2023-11-18T13:15:59;0.85;;;0.65;;
6651;SDS011;3362;50.892;10.692;2023-11-18T13:18:26;1.48;;;1.38;;
6651;SDS011;3362;50.892;10.692;2023-11-18T13:20:53;2.15;;;0.82;;
6651;SDS011;3362;50.892;10.692;2023-11-18T13:23:20;0.88;;;0.88;;
6651;SDS011;3362;50.892;10.692;2023-11-18T13:25:47;1.40;;;1.30;;
6651;SDS011;3362;50.892;10.692;2023-11-18T13:28:13;0.70;;;0.70;;
6651;SDS011;3362;50.892;10.692;2023-11-18T13:30:42;0.80;;;0.70;;
6651;SDS011;3362;50.892;10.692;2023-11-18T13:33:11;1.85;;;1.75;;
6651;SDS011;3362;50.892;10.692;2023-11-18T13:38:03;1.02;;;1.02;;
6651;SDS011;3362;50.892;10.692;2023-11-18T13:40:41;0.95;;;0.85;;
6651;SDS011;3362;50.892;10.692;2023-11-18T13:43:07;3.35;;;3.05;;
6651;SDS011;3362;50.892;10.692;2023-11-18T13:45:34;3.60;;;2.38;;
6651;SDS011;3362;50.892;10.692;2023-11-18T13:48:02;2.97;;;2.53;;
6651;SDS011;3362;50.892;10.692;2023-11-18T13:50:29;1.20;;;1.10;;
6651;SDS011;3362;50.892;10.692;2023-11-18T13:52:55;3.53;;;1.40;;
6651;SDS011;3362;50.892;10.692;2023-11-18T13:55:22;2.80;;;1.13;;
6651;SDS011;3362;50.892;10.692;2023-11-18T13:57:53;0.88;;;0.70;;
6651;SDS011;3362;50.892;10.692;2023-11-18T14:00:21;0.88;;;0.63;;
6651;SDS011;3362;50.892;10.692;2023-11-18T14:02:48;0.80;;;0.77;;
6651;SDS011;3362;50.892;10.692;2023-11-18T14:05:16;2.10;;;1.30;;
6651;SDS011;3362;50.892;10.692;2023-11-18T14:07:43;1.40;;;0.77;;
6651;SDS011;3362;50.892;10.692;2023-11-18T14:10:09;1.33;;;0.85;;
6651;SDS011;3362;50.892;10.692;2023-11-18T14:12:38;1.40;;;0.60;;
6651;SDS011;3362;50.892;10.692;2023-11-18T14:15:04;0.77;;;0.17;;
6651;SDS011;3362;50.892;10.692;2023-11-18T14:17:34;0.82;;;0.60;;
6651;SDS011;3362;50.892;10.692;2023-11-18T14:20:01;2.47;;;1.02;;
6651;SDS011;3362;50.892;10.692;2023-11-18T14:22:28;0.65;;;0.65;;
6651;SDS011;3362;50.892;10.692;2023-11-18T14:24:55;2.25;;;0.57;;
6651;SDS011;3362;50.892;10.692;2023-11-18T14:27:21;0.52;;;0.52;;
6651;SDS011;3362;50.892;10.692;2023-11-18T14:29:47;0.82;;;0.80;;
6651;SDS011;3362;50.892;10.692;2023-11-18T14:32:13;1.58;;;0.85;;
6651;SDS011;3362;50.892;10.692;2023-11-18T14:34:40;1.30;;;0.88;;
6651;SDS011;3362;50.892;10.692;2023-11-18T14:39:34;1.02;;;0.80;;
6651;SDS011;3362;50.892;10.692;2023-11-18T14:42:01;0.40;;;0.35;;
6651;SDS011;3362;50.892;10.692;2023-11-18T14:44:29;4.88;;;1.75;;
6651;SDS011;3362;50.892;10.692;2023-11-18T14:46:55;1.30;;;1.30;;
6651;SDS011;3362;50.892;10.692;2023-11-18T14:49:22;0.45;;;0.45;;
6651;SDS011;3362;50.892;10.692;2023-11-18T14:51:48;0.73;;;0.73;;
6651;SDS011;3362;50.892;10.692;2023-11-18T14:54:16;2.40;;;1.73;;
6651;SDS011;3362;50.892;10.692;2023-11-18T14:56:45;0.52;;;0.43;;
6651;SDS011;3362;50.892;10.692;2023-11-18T14:59:14;6.90;;;1.67;;
6651;SDS011;3362;50.892;10.692;2023-11-18T15:01:40;1.30;;;0.70;;
6651;SDS011;3362;50.892;10.692;2023-11-18T15:04:09;1.40;;;1.30;;
6651;SDS011;3362;50.892;10.692;2023-11-18T15:06:37;1.10;;;1.10;;
6651;SDS011;3362;50.892;10.692;2023-11-18T15:09:03;0.52;;;0.50;;
6651;SDS011;3362;50.892;10.692;2023-11-18T15:11:29;1.13;;;1.00;;
6651;SDS011;3362;50.892;10.692;2023-11-18T15:14:00;0.40;;;0.40;;
6651;SDS011;3362;50.892;10.692;2023-11-18T15:16:26;1.58;;;0.95;;
6651;SDS011;3362;50.892;10.692;2023-11-18T15:18:52;1.20;;;1.10;;
6651;SDS011;3362;50.892;10.692;2023-11-18T15:21:20;0.88;;;0.88;;
6651;SDS011;3362;50.892;10.692;2023-11-18T15:23:46;1.38;;;1.27;;
6651;SDS011;3362;50.892;10.692;2023-11-18T15:26:13;0.95;;;0.95;;
6651;SDS011;3362;50.892;10.692;2023-11-18T15:28:39;0.82;;;0.65;;
6651;SDS011;3362;50.892;10.692;2023-11-18T15:31:07;1.25;;;0.57;;
6651;SDS011;3362;50.892;10.692;2023-11-18T15:33:33;0.50;;;0.40;;